Time;durP1;ratioP1;P1;durP2;ratioP2;P2;SDS_P1;SDS_P2;PMS_P1;PMS_P2;Temp;Humidity;BMP_temperature;BMP_pressure;BME280_temperature;BME280_humidity;BME280_pressure;Samples;Min_cycle;Max_cycle;Signal;HPM_P1;HPM_P2
2023/09/28 00:03:12;;;;;;;15.00;10.95;;;22.70;99.90;;;;;;4947962;29;20062;-79
2023/09/28 00:05:38;;;;;;;11.68;9.98;;;22.90;99.90;;;;;;4947077;29;20039;-80
2023/09/28 00:08:04;;;;;;;12.05;10.35;;;22.60;99.90;;;;;;4975708;28;20049;-79
2023/09/28 00:10:32;;;;;;;11.98;9.65;;;22.80;99.90;;;;;;4997597;28;20402;-80
2023/09/28 00:12:59;;;;;;;12.80;9.45;;;22.80;99.90;;;;;;5017367;28;20038;-79
2023/09/28 00:15:25;;;;;;;16.45;9.63;;;22.80;99.90;;;;;;5017373;28;20037;-79
2023/09/28 00:17:51;;;;;;;11.82;10.13;;;23.00;99.90;;;;;;5016805;28;20042;-79
2023/09/28 00:20:19;;;;;;;10.65;8.85;;;22.50;99.90;;;;;;5008982;28;20037;-79
2023/09/28 00:22:52;;;;;;;11.50;9.43;;;22.80;99.90;;;;;;5024245;28;20038;-79
2023/09/28 00:25:19;;;;;;;10.68;8.85;;;22.70;99.90;;;;;;5010029;28;20129;-80
2023/09/28 00:27:47;;;;;;;10.43;8.95;;;22.90;99.90;;;;;;5017479;28;20046;-80
2023/09/28 00:30:19;;;;;;;10.45;8.35;;;22.70;99.90;;;;;;5017009;28;20061;-79
2023/09/28 00:32:52;;;;;;;10.83;8.90;;;22.70;99.90;;;;;;5017061;28;20045;-79
2023/09/28 00:35:17;;;;;;;;;;;22.60;99.90;;;;;;5016957;28;20073;-80
2023/09/28 00:37:48;;;;;;;9.85;8.15;;;22.90;99.90;;;;;;4989853;28;19984;-79
2023/09/28 00:40:27;;;;;;;12.23;8.18;;;22.50;99.90;;;;;;5003243;28;20052;-79
2023/09/28 00:42:53;;;;;;;10.10;7.85;;;22.80;99.90;;;;;;5003484;28;20041;-80
2023/09/28 00:45:24;;;;;;;10.40;8.27;;;22.90;99.90;;;;;;4987473;28;20463;-79
2023/09/28 00:48:11;;;;;;;9.57;7.60;;;22.80;99.90;;;;;;5003611;28;20129;-80
2023/09/28 00:50:37;;;;;;;11.85;7.63;;;22.60;99.90;;;;;;5003297;28;20129;-80
2023/09/28 00:53:10;;;;;;;10.60;7.20;;;22.80;99.90;;;;;;4987553;28;20084;-80
2023/09/28 00:55:37;;;;;;;10.32;7.03;;;22.80;99.90;;;;;;5002406;28;20417;-79
2023/09/28 00:58:10;;;;;;;9.38;6.80;;;22.90;99.90;;;;;;5004121;28;20038;-80
2023/09/28 01:00:38;;;;;;;9.18;6.60;;;23.00;99.90;;;;;;5004987;28;20113;-80
2023/09/28 01:03:08;;;;;;;7.68;6.97;;;22.80;99.90;;;;;;5005721;28;20026;-79
2023/09/28 01:05:38;;;;;;;8.38;7.00;;;22.90;99.90;;;;;;5003080;28;20049;-79
2023/09/28 01:08:12;;;;;;;9.18;6.60;;;22.80;99.90;;;;;;5007656;28;20057;-79
2023/09/28 01:10:42;;;;;;;8.60;5.95;;;22.90;99.90;;;;;;5004581;28;20038;-80
2023/09/28 01:13:12;;;;;;;11.25;6.88;;;22.80;99.90;;;;;;4989384;28;20041;-79
2023/09/28 01:15:39;;;;;;;7.78;6.43;;;22.60;99.90;;;;;;5003760;28;20045;-78
2023/09/28 01:18:09;;;;;;;8.48;6.80;;;22.80;99.90;;;;;;5001991;28;20037;-79
2023/09/28 01:20:36;;;;;;;8.65;6.55;;;22.80;99.90;;;;;;5003719;28;20050;-79
2023/09/28 01:23:04;;;;;;;8.00;6.05;;;23.00;99.90;;;;;;5005753;28;20127;-79
2023/09/28 01:25:30;;;;;;;10.13;6.35;;;22.80;99.90;;;;;;5004413;28;20033;-79
2023/09/28 01:27:56;;;;;;;7.65;6.85;;;22.60;99.90;;;;;;4988447;28;20060;-79
2023/09/28 01:30:23;;;;;;;12.18;6.05;;;22.70;99.90;;;;;;5004305;28;20068;-80
2023/09/28 01:32:48;;;;;;;8.90;6.10;;;22.60;99.90;;;;;;5004967;28;20048;-80
2023/09/28 01:35:14;;;;;;;7.93;5.97;;;22.50;99.90;;;;;;4989378;28;20038;-79
2023/09/28 01:38:04;;;;;;;13.57;7.18;;;22.50;99.90;;;;;;5004326;28;20038;-80
2023/09/28 01:40:30;;;;;;;8.68;6.55;;;22.50;99.90;;;;;;5005666;28;20037;-79
2023/09/28 01:42:55;;;;;;;9.00;5.88;;;22.60;99.90;;;;;;5003411;28;20048;-79
2023/09/28 01:45:21;;;;;;;10.02;6.30;;;22.60;99.90;;;;;;5004481;28;20049;-79
2023/09/28 01:47:47;;;;;;;10.60;6.28;;;22.60;99.90;;;;;;5004294;28;20041;-79
2023/09/28 01:50:12;;;;;;;9.15;6.03;;;22.70;99.90;;;;;;5003534;28;20046;-79
2023/09/28 01:52:38;;;;;;;9.55;5.78;;;22.90;99.90;;;;;;5004253;28;20096;-79
2023/09/28 01:55:04;;;;;;;6.32;5.50;;;22.60;99.90;;;;;;5005204;28;20156;-79
2023/09/28 01:57:31;;;;;;;7.72;6.25;;;22.70;99.90;;;;;;4988847;28;20096;-79
2023/09/28 01:59:59;;;;;;;6.95;5.55;;;22.30;99.90;;;;;;4988177;28;20030;-79
2023/09/28 02:02:25;;;;;;;8.35;5.95;;;22.40;99.90;;;;;;5003867;28;20087;-79
2023/09/28 02:04:51;;;;;;;7.40;6.28;;;22.30;99.90;;;;;;5011042;28;20048;-79
2023/09/28 02:07:17;;;;;;;6.88;5.65;;;22.50;99.90;;;;;;5017533;28;20037;-79
2023/09/28 02:09:43;;;;;;;12.65;6.85;;;22.20;99.90;;;;;;5001302;28;20049;-79
2023/09/28 02:12:09;;;;;;;8.50;6.82;;;22.50;99.90;;;;;;5014219;28;20100;-80
2023/09/28 02:14:36;;;;;;;9.95;6.43;;;22.20;99.90;;;;;;4984761;28;20076;-80
2023/09/28 02:17:02;;;;;;;8.20;6.55;;;22.50;99.90;;;;;;5001838;28;20072;-79
2023/09/28 02:19:27;;;;;;;6.55;5.63;;;22.30;99.90;;;;;;4984604;28;20421;-79
2023/09/28 02:21:53;;;;;;;6.65;5.90;;;22.30;99.90;;;;;;4984994;28;20057;-79
2023/09/28 02:24:19;;;;;;;7.25;5.90;;;22.30;99.90;;;;;;5000780;28;20140;-79
2023/09/28 02:26:44;;;;;;;9.50;6.60;;;21.90;99.90;;;;;;4985261;28;20046;-80
2023/09/28 02:29:12;;;;;;;9.13;6.45;;;22.10;99.90;;;;;;5002346;28;20038;-80
2023/09/28 02:31:44;;;;;;;8.35;6.78;;;22.40;99.90;;;;;;4985074;28;20038;-79
2023/09/28 02:34:09;;;;;;;9.43;6.72;;;22.30;99.90;;;;;;4986055;28;20129;-80
2023/09/28 02:36:35;;;;;;;9.20;6.65;;;22.10;99.90;;;;;;5002735;28;20466;-79
2023/09/28 02:39:12;;;;;;;11.23;6.18;;;22.10;99.90;;;;;;4985829;28;20516;-80
2023/09/28 02:41:38;;;;;;;9.75;7.40;;;22.10;99.90;;;;;;5003816;28;20046;-79
2023/09/28 02:44:04;;;;;;;8.93;7.28;;;22.10;99.90;;;;;;5003546;28;20076;-80
2023/09/28 02:46:31;;;;;;;9.88;6.97;;;21.90;99.90;;;;;;4986645;28;20038;-80
2023/09/28 02:48:57;;;;;;;9.85;7.03;;;21.90;99.90;;;;;;5003916;28;20061;-79
2023/09/28 02:51:23;;;;;;;9.60;7.30;;;22.20;99.90;;;;;;5003697;28;20034;-80
2023/09/28 02:53:48;;;;;;;8.18;7.32;;;21.70;99.90;;;;;;4987632;28;20091;-79
2023/09/28 02:56:14;;;;;;;7.60;6.07;;;21.80;99.90;;;;;;5002756;28;20056;-80
2023/09/28 02:58:40;;;;;;;8.32;6.68;;;21.90;99.90;;;;;;4986017;28;20038;-79
2023/09/28 03:01:06;;;;;;;9.13;7.15;;;21.60;99.90;;;;;;4987072;28;20046;-79
2023/09/28 03:03:31;;;;;;;10.60;7.22;;;21.70;99.90;;;;;;5003329;28;20038;-79
2023/09/28 03:05:58;;;;;;;10.43;7.18;;;21.50;99.90;;;;;;5003360;28;20034;-79
2023/09/28 03:08:24;;;;;;;12.15;7.28;;;21.80;99.90;;;;;;5003216;28;20045;-80
2023/09/28 03:10:53;;;;;;;11.80;7.72;;;21.40;99.90;;;;;;5003316;28;20056;-79
2023/09/28 03:13:19;;;;;;;8.68;7.40;;;21.40;99.90;;;;;;4987567;28;20580;-79
2023/09/28 03:15:45;;;;;;;10.07;6.10;;;21.50;99.90;;;;;;5006565;28;20044;-79
2023/09/28 03:18:12;;;;;;;9.10;6.30;;;21.70;99.90;;;;;;5007801;28;20069;-80
2023/09/28 03:20:45;;;;;;;9.05;7.13;;;21.70;99.90;;;;;;5006476;28;20041;-79
2023/09/28 03:23:12;;;;;;;7.95;6.57;;;21.40;99.90;;;;;;4990383;28;20042;-79
2023/09/28 03:25:37;;;;;;;9.70;7.03;;;21.50;99.90;;;;;;5006697;28;20038;-80
2023/09/28 03:28:04;;;;;;;10.65;6.65;;;21.30;99.90;;;;;;5009129;28;20103;-79
2023/09/28 03:30:30;;;;;;;12.55;6.68;;;21.40;99.90;;;;;;5010330;28;20084;-79
2023/09/28 03:32:56;;;;;;;9.80;7.07;;;21.40;99.90;;;;;;5010345;28;20068;-78
2023/09/28 03:35:22;;;;;;;12.65;7.32;;;21.60;99.90;;;;;;5010410;28;20037;-78
2023/09/28 03:37:53;;;;;;;9.63;7.15;;;21.20;99.90;;;;;;5009509;28;20041;-77
2023/09/28 03:40:20;;;;;;;10.45;6.95;;;21.20;99.90;;;;;;4994342;28;20041;-78
2023/09/28 03:42:49;;;;;;;10.85;6.70;;;21.50;99.90;;;;;;5008236;28;20498;-79
2023/09/28 03:45:21;;;;;;;9.10;6.47;;;21.20;99.90;;;;;;4991224;28;20033;-79
2023/09/28 03:47:50;;;;;;;9.13;6.18;;;21.20;99.90;;;;;;5006911;28;20046;-78
2023/09/28 03:50:16;;;;;;;9.32;6.72;;;21.20;99.90;;;;;;4991243;28;20084;-78
2023/09/28 03:52:43;;;;;;;11.38;7.25;;;21.20;99.90;;;;;;5006906;28;20037;-79
2023/09/28 03:55:18;;;;;;;9.48;6.00;;;21.30;99.90;;;;;;4990760;28;20124;-78
2023/09/28 03:57:47;;;;;;;10.48;7.40;;;21.30;99.90;;;;;;5006183;28;20405;-79
2023/09/28 04:00:14;;;;;;;13.35;7.57;;;21.20;99.90;;;;;;4989233;28;20045;-79
2023/09/28 04:02:41;;;;;;;8.10;6.70;;;21.20;99.90;;;;;;4989212;28;20049;-79
2023/09/28 04:05:08;;;;;;;13.65;7.22;;;21.40;99.90;;;;;;5004685;28;20057;-78
2023/09/28 04:07:34;;;;;;;9.07;6.45;;;21.00;99.90;;;;;;4988176;28;20073;-77
2023/09/28 04:10:00;;;;;;;9.93;7.20;;;21.20;99.90;;;;;;5004352;28;20046;-78
2023/09/28 04:12:27;;;;;;;11.90;7.55;;;21.10;99.90;;;;;;5004230;28;20060;-79
2023/09/28 04:14:53;;;;;;;10.20;7.45;;;21.30;99.90;;;;;;5004544;28;20041;-79
2023/09/28 04:17:19;;;;;;;9.98;6.85;;;21.10;99.90;;;;;;4989065;28;20042;-79
2023/09/28 04:19:45;;;;;;;11.27;7.40;;;21.30;99.90;;;;;;5004507;28;20122;-78
2023/09/28 04:22:10;;;;;;;9.68;7.47;;;21.20;99.90;;;;;;5005378;28;20034;-77
2023/09/28 04:24:36;;;;;;;11.18;7.20;;;21.40;99.90;;;;;;4989331;28;20048;-78
2023/09/28 04:27:02;;;;;;;8.90;7.38;;;21.00;99.90;;;;;;5004916;28;20041;-77
2023/09/28 04:29:27;;;;;;;9.63;8.20;;;21.20;99.90;;;;;;5007901;28;20092;-79
2023/09/28 04:31:56;;;;;;;11.93;7.70;;;21.00;99.90;;;;;;5006200;28;20042;-79
2023/09/28 04:34:22;;;;;;;11.00;7.72;;;21.00;99.90;;;;;;4989125;28;20042;-80
2023/09/28 04:36:49;;;;;;;12.68;7.85;;;21.10;99.90;;;;;;4989088;28;20072;-78
2023/09/28 04:39:17;;;;;;;11.52;7.13;;;20.90;99.90;;;;;;4988619;28;20046;-79
2023/09/28 04:41:43;;;;;;;14.07;8.13;;;21.50;99.90;;;;;;5005575;28;20045;-79
2023/09/28 04:44:09;;;;;;;11.05;7.18;;;21.00;99.90;;;;;;5005490;28;20445;-80
2023/09/28 04:46:35;;;;;;;10.32;8.13;;;21.40;99.90;;;;;;5005436;28;20064;-79
2023/09/28 04:49:01;;;;;;;11.63;7.47;;;21.20;99.90;;;;;;5013170;28;20049;-79
2023/09/28 04:51:28;;;;;;;14.10;8.60;;;21.30;99.90;;;;;;5017761;28;20037;-79
2023/09/28 04:53:54;;;;;;;12.90;7.63;;;21.10;99.90;;;;;;5015138;28;20042;-80
2023/09/28 04:56:20;;;;;;;12.93;7.60;;;20.80;99.90;;;;;;5001805;28;20045;-78
2023/09/28 04:58:46;;;;;;;10.02;6.28;;;21.10;99.90;;;;;;5001222;28;20042;-77
2023/09/28 05:01:11;;;;;;;12.98;6.05;;;21.00;99.90;;;;;;5000977;28;20709;-80
2023/09/28 05:03:37;;;;;;;11.75;5.50;;;21.10;99.90;;;;;;5001175;28;20457;-80
2023/09/28 05:06:04;;;;;;;9.43;5.68;;;20.80;99.90;;;;;;5001956;28;20080;-79
2023/09/28 05:08:31;;;;;;;13.50;4.93;;;20.90;99.90;;;;;;4985913;28;20105;-78
2023/09/28 05:10:57;;;;;;;10.88;4.70;;;20.70;99.90;;;;;;4987565;28;20042;-78
2023/09/28 05:13:27;;;;;;;11.68;5.25;;;21.10;99.90;;;;;;4985794;28;20537;-79
2023/09/28 05:15:52;;;;;;;14.18;4.13;;;20.80;99.90;;;;;;5001974;28;20067;-79
2023/09/28 05:18:19;;;;;;;11.02;4.05;;;21.10;99.90;;;;;;5001695;28;20054;-79
2023/09/28 05:20:45;;;;;;;17.27;4.43;;;21.50;99.90;;;;;;5001293;28;20486;-79
2023/09/28 05:23:10;;;;;;;15.15;4.28;;;21.20;99.90;;;;;;5019304;28;20060;-79
2023/09/28 05:25:37;;;;;;;11.32;3.97;;;21.20;99.90;;;;;;5002164;28;20072;-79
2023/09/28 05:28:03;;;;;;;18.98;5.07;;;21.20;99.90;;;;;;4985290;28;20065;-78
2023/09/28 05:30:29;;;;;;;26.63;4.60;;;21.10;99.90;;;;;;4984268;28;20517;-77
2023/09/28 05:32:55;;;;;;;15.35;4.03;;;21.10;99.90;;;;;;5000975;28;20077;-79
2023/09/28 05:35:23;;;;;;;20.13;4.07;;;21.20;99.90;;;;;;4986026;28;20038;-80
2023/09/28 05:37:49;;;;;;;19.38;4.05;;;21.40;99.90;;;;;;5001053;28;20112;-79
2023/09/28 05:40:15;;;;;;;28.08;4.63;;;21.20;99.90;;;;;;5001469;28;20052;-79
2023/09/28 05:42:41;;;;;;;19.13;4.05;;;21.90;99.90;;;;;;5002344;28;20141;-79
2023/09/28 05:45:08;;;;;;;24.58;4.50;;;21.20;99.90;;;;;;5001337;28;20069;-79
2023/09/28 05:47:34;;;;;;;24.42;4.90;;;21.10;99.90;;;;;;4986347;28;20398;-80
2023/09/28 05:50:01;;;;;;;20.20;4.03;;;21.10;99.90;;;;;;4985798;28;20517;-77
2023/09/28 05:52:27;;;;;;;24.38;4.30;;;21.30;99.90;;;;;;5000816;28;20042;-79
2023/09/28 05:54:53;;;;;;;17.25;4.28;;;21.20;99.90;;;;;;4992242;28;20076;-79
2023/09/28 05:57:22;;;;;;;27.63;5.72;;;21.20;99.90;;;;;;4993924;28;20042;-75
2023/09/28 05:59:48;;;;;;;30.95;6.07;;;21.10;99.90;;;;;;5014874;28;20046;-78
2023/09/28 06:02:14;;;;;;;20.20;4.22;;;21.20;99.90;;;;;;4981205;28;20034;-79
2023/09/28 06:04:41;;;;;;;22.27;5.18;;;20.90;99.90;;;;;;4990851;28;20409;-79
2023/09/28 06:07:07;;;;;;;20.25;4.05;;;21.30;99.90;;;;;;5008486;28;20038;-79
2023/09/28 06:09:32;;;;;;;26.33;4.53;;;21.10;99.90;;;;;;4991407;28;20128;-79
2023/09/28 06:11:58;;;;;;;20.52;4.65;;;21.10;99.90;;;;;;4992459;28;20046;-79
2023/09/28 06:14:24;;;;;;;27.40;4.80;;;21.70;99.90;;;;;;4992450;28;20045;-79
2023/09/28 06:16:49;;;;;;;31.25;6.13;;;20.90;99.90;;;;;;4975394;28;20034;-79
2023/09/28 06:19:15;;;;;;;23.67;4.63;;;21.00;99.90;;;;;;4989875;28;20096;-79
2023/09/28 06:21:41;;;;;;;22.65;4.43;;;21.00;99.90;;;;;;4991716;28;20382;-79
2023/09/28 06:24:07;;;;;;;26.67;4.95;;;21.80;99.90;;;;;;4990985;28;20038;-79
2023/09/28 06:26:33;;;;;;;23.67;5.10;;;20.80;99.90;;;;;;4990429;28;20030;-78
2023/09/28 06:28:59;;;;;;;24.05;5.55;;;20.90;99.90;;;;;;4993240;28;20401;-78
2023/09/28 06:31:25;;;;;;;22.17;4.30;;;20.80;99.90;;;;;;4975148;28;20044;-79
2023/09/28 06:33:50;;;;;;;27.95;6.45;;;20.80;99.90;;;;;;4991287;28;20038;-79
2023/09/28 06:36:18;;;;;;;28.23;5.32;;;21.20;99.90;;;;;;5018445;28;20042;-78
2023/09/28 06:38:47;;;;;;;22.02;4.25;;;20.80;99.90;;;;;;5020364;28;20042;-78
2023/09/28 06:41:13;;;;;;;22.73;4.68;;;21.20;99.90;;;;;;5003035;28;20042;-78
2023/09/28 06:43:39;;;;;;;19.42;4.03;;;21.20;99.90;;;;;;5002271;28;20077;-79
2023/09/28 06:46:05;;;;;;;25.15;5.03;;;21.20;99.90;;;;;;5002139;28;20049;-78
2023/09/28 06:48:34;;;;;;;19.77;4.53;;;21.20;99.90;;;;;;5003169;28;20069;-79
2023/09/28 06:50:59;;;;;;;20.77;4.35;;;21.40;99.90;;;;;;5026736;28;20069;-79
2023/09/28 06:53:25;;;;;;;27.15;5.03;;;21.20;99.90;;;;;;5005097;28;20034;-79
2023/09/28 06:55:52;;;;;;;22.55;4.38;;;21.70;99.90;;;;;;5016128;28;20556;-78
2023/09/28 06:58:19;;;;;;;23.98;4.03;;;21.40;99.90;;;;;;5001855;28;20126;-79
2023/09/28 07:00:45;;;;;;;20.27;5.03;;;21.40;99.90;;;;;;4997716;28;20034;-78
2023/09/28 07:03:11;;;;;;;22.83;4.90;;;21.50;99.90;;;;;;5000249;28;20069;-79
2023/09/28 07:05:38;;;;;;;29.73;5.68;;;21.50;99.90;;;;;;5007608;28;20040;-78
2023/09/28 07:08:05;;;;;;;27.95;5.75;;;21.60;99.90;;;;;;4999942;28;20095;-78
2023/09/28 07:10:35;;;;;;;27.38;4.95;;;21.60;99.90;;;;;;4982727;28;20042;-77
2023/09/28 07:13:05;;;;;;;26.25;5.22;;;21.60;99.90;;;;;;4979866;28;20083;-78
2023/09/28 07:15:33;;;;;;;31.98;6.95;;;21.80;99.90;;;;;;4997520;28;20038;-77
2023/09/28 07:17:59;;;;;;;26.35;5.38;;;21.90;99.90;;;;;;5001095;28;20395;-76
2023/09/28 07:20:26;;;;;;;19.48;4.15;;;22.00;99.90;;;;;;4983797;28;20062;-79
2023/09/28 07:22:52;;;;;;;24.17;5.10;;;21.90;99.90;;;;;;4987676;28;20077;-77
2023/09/28 07:25:18;;;;;;;31.30;5.57;;;22.20;99.90;;;;;;5012166;28;20037;-79
2023/09/28 07:27:52;;;;;;;29.92;5.53;;;22.00;99.90;;;;;;5012344;28;20045;-78
2023/09/28 07:30:22;;;;;;;22.48;4.60;;;22.10;99.90;;;;;;4986455;28;20053;-75
2023/09/28 07:32:49;;;;;;;28.83;5.53;;;22.30;99.90;;;;;;4998400;28;20036;-75
2023/09/28 07:35:16;;;;;;;24.95;4.22;;;22.10;99.90;;;;;;4996276;28;20065;-79
2023/09/28 07:37:42;;;;;;;24.27;4.75;;;22.20;99.90;;;;;;4993475;28;20057;-78
2023/09/28 07:40:12;;;;;;;26.40;4.35;;;22.10;99.90;;;;;;5007253;28;20041;-78
2023/09/28 07:42:41;;;;;;;22.40;5.72;;;22.30;99.90;;;;;;4991183;28;20606;-80
2023/09/28 07:45:07;;;;;;;23.98;4.57;;;22.10;99.90;;;;;;4981957;28;20411;-78
2023/09/28 07:47:33;;;;;;;15.43;3.60;;;22.40;99.90;;;;;;4974810;28;20038;-79
2023/09/28 07:50:00;;;;;;;20.40;4.22;;;22.50;99.90;;;;;;4992646;28;20074;-78
2023/09/28 07:52:26;;;;;;;22.58;5.28;;;22.50;99.90;;;;;;4995375;28;20038;-79
2023/09/28 07:54:51;;;;;;;20.08;4.28;;;22.40;99.90;;;;;;4995221;28;20061;-79
2023/09/28 07:57:17;;;;;;;19.40;4.25;;;22.50;99.90;;;;;;4993701;28;20490;-78
2023/09/28 07:59:43;;;;;;;20.13;4.40;;;22.60;99.90;;;;;;4964440;28;20045;-78
2023/09/28 08:02:11;;;;;;;21.02;4.30;;;22.80;99.90;;;;;;4964402;28;20096;-78
2023/09/28 08:04:37;;;;;;;18.70;4.13;;;22.50;99.90;;;;;;4980587;28;20042;-78
2023/09/28 08:07:04;;;;;;;18.15;4.00;;;22.50;99.90;;;;;;4964584;28;20042;-78
2023/09/28 08:09:30;;;;;;;19.02;5.38;;;22.70;99.90;;;;;;4977079;28;20046;-79
2023/09/28 08:11:55;;;;;;;24.33;4.07;;;22.70;99.90;;;;;;4997114;28;20149;-79
2023/09/28 08:14:21;;;;;;;20.52;3.97;;;22.60;99.90;;;;;;4995884;28;20553;-78
2023/09/28 08:16:48;;;;;;;26.33;4.97;;;22.90;99.90;;;;;;4998864;28;20073;-78
2023/09/28 08:19:14;;;;;;;28.88;4.50;;;23.90;99.90;;;;;;4998889;28;20038;-79
2023/09/28 08:21:41;;;;;;;18.08;3.88;;;23.00;99.90;;;;;;4984647;28;20042;-78
2023/09/28 08:24:08;;;;;;;15.65;3.95;;;23.10;99.90;;;;;;4999181;28;20038;-78
2023/09/28 08:26:35;;;;;;;24.50;4.70;;;23.00;99.90;;;;;;5000567;28;20042;-79
2023/09/28 08:29:01;;;;;;;24.17;4.80;;;23.20;99.90;;;;;;4983733;28;20489;-79
2023/09/28 08:31:27;;;;;;;23.70;5.45;;;23.60;99.90;;;;;;5000333;28;20049;-78
2023/09/28 08:33:53;;;;;;;27.88;6.03;;;23.70;99.90;;;;;;4981885;28;20073;-79
2023/09/28 08:36:21;;;;;;;20.95;4.40;;;23.60;99.90;;;;;;4982415;28;20037;-80
2023/09/28 08:38:47;;;;;;;19.10;4.25;;;23.30;99.90;;;;;;4995558;28;20519;-79
2023/09/28 08:41:18;;;;;;;23.58;4.40;;;23.40;99.90;;;;;;4983479;28;20093;-79
2023/09/28 08:43:52;;;;;;;23.40;4.28;;;23.40;99.90;;;;;;4985521;28;20034;-78
2023/09/28 08:46:20;;;;;;;20.77;4.20;;;23.40;99.90;;;;;;4999573;28;20566;-79
2023/09/28 08:48:48;;;;;;;17.83;3.97;;;23.40;99.90;;;;;;4983031;28;20045;-79
2023/09/28 08:51:15;;;;;;;27.13;4.85;;;23.30;99.90;;;;;;5000261;28;20056;-79
2023/09/28 08:53:43;;;;;;;22.63;5.50;;;23.40;99.90;;;;;;4974126;28;20042;-79
2023/09/28 08:56:09;;;;;;;26.77;5.18;;;23.40;99.90;;;;;;4980207;28;20050;-79
2023/09/28 08:58:36;;;;;;;22.48;4.10;;;23.00;99.90;;;;;;4980124;28;20042;-78
2023/09/28 09:01:03;;;;;;;25.95;4.80;;;23.30;99.90;;;;;;4979903;28;20038;-79
2023/09/28 09:03:31;;;;;;;19.85;4.15;;;23.40;99.90;;;;;;4964227;28;20042;-79
2023/09/28 09:05:57;;;;;;;27.48;5.40;;;23.00;99.90;;;;;;4980757;28;20042;-78
2023/09/28 09:08:24;;;;;;;21.75;4.88;;;23.20;99.90;;;;;;4983458;28;20084;-79
2023/09/28 09:10:51;;;;;;;22.98;4.38;;;23.40;99.90;;;;;;4989460;28;20058;-79
2023/09/28 09:13:18;;;;;;;25.42;5.60;;;23.10;99.90;;;;;;4979529;28;20037;-79
2023/09/28 09:15:44;;;;;;;20.80;4.32;;;23.10;99.90;;;;;;4999925;28;20106;-78
2023/09/28 09:18:19;;;;;;;22.75;4.97;;;23.70;99.90;;;;;;4999564;28;20135;-79
2023/09/28 09:20:49;;;;;;;22.00;5.13;;;23.20;99.90;;;;;;4999736;28;20049;-79
2023/09/28 09:23:16;;;;;;;28.13;5.45;;;23.20;99.90;;;;;;4984142;28;20552;-80
2023/09/28 09:25:47;;;;;;;27.63;5.03;;;23.20;99.90;;;;;;4999536;28;20401;-79
2023/09/28 09:28:26;;;;;;;18.90;4.47;;;23.20;99.90;;;;;;4983193;28;20084;-79
2023/09/28 09:30:52;;;;;;;25.48;4.40;;;23.20;99.90;;;;;;4999263;28;20041;-78
2023/09/28 09:33:18;;;;;;;31.73;5.38;;;23.10;99.90;;;;;;4999813;28;20045;-79
2023/09/28 09:35:44;;;;;;;19.85;4.50;;;23.30;99.90;;;;;;5012175;28;20026;-79
2023/09/28 09:38:09;;;;;;;21.52;4.47;;;23.50;99.90;;;;;;4985473;28;20046;-79
2023/09/28 09:40:35;;;;;;;22.65;3.78;;;23.20;99.90;;;;;;4998293;28;20050;-79
2023/09/28 09:43:08;;;;;;;23.25;4.70;;;23.50;99.90;;;;;;4980927;28;20043;-79
2023/09/28 09:45:38;;;;;;;26.95;5.00;;;23.70;99.90;;;;;;4979529;28;20074;-79
2023/09/28 09:48:06;;;;;;;15.68;4.25;;;23.40;99.90;;;;;;4979626;28;20457;-79
2023/09/28 09:50:35;;;;;;;14.55;3.70;;;23.40;99.90;;;;;;4963682;28;20046;-79
2023/09/28 09:53:06;;;;;;;20.42;4.78;;;23.90;99.90;;;;;;4980888;28;20046;-81
2023/09/28 09:55:34;;;;;;;18.35;4.55;;;23.60;99.90;;;;;;4965113;28;20042;-80
2023/09/28 09:58:03;;;;;;;23.23;4.30;;;23.50;99.90;;;;;;4982060;28;20049;-80
2023/09/28 10:00:33;;;;;;;20.23;4.75;;;23.50;99.90;;;;;;4981852;28;20048;-81
2023/09/28 10:03:00;;;;;;;21.33;4.18;;;23.60;99.90;;;;;;4981669;28;20035;-80
2023/09/28 10:05:27;;;;;;;18.80;4.20;;;23.70;99.90;;;;;;4981766;28;20502;-80
2023/09/28 10:07:55;;;;;;;19.40;4.30;;;23.50;99.90;;;;;;4975818;28;20494;-78
2023/09/28 10:10:23;;;;;;;22.23;5.13;;;23.20;99.90;;;;;;4992496;28;20078;-78
2023/09/28 10:12:50;;;;;;;28.02;4.90;;;23.60;99.90;;;;;;4976293;28;20258;-78
2023/09/28 10:15:16;;;;;;;27.55;5.07;;;23.70;99.90;;;;;;4968542;28;20081;-79
2023/09/28 10:17:45;;;;;;;19.58;4.93;;;23.60;99.90;;;;;;4984513;28;20093;-79
2023/09/28 10:20:13;;;;;;;24.77;5.00;;;23.40;99.90;;;;;;4991961;28;20448;-79
2023/09/28 10:22:46;;;;;;;21.35;6.45;;;23.70;99.90;;;;;;4992009;28;20048;-81
2023/09/28 10:25:15;;;;;;;29.75;5.88;;;23.50;99.90;;;;;;4988358;28;20041;-81
2023/09/28 10:27:45;;;;;;;16.95;4.20;;;23.50;99.90;;;;;;5007463;28;20057;-81
2023/09/28 10:30:22;;;;;;;17.80;4.00;;;23.50;99.90;;;;;;4987779;28;20038;-82
2023/09/28 10:32:51;;;;;;;29.15;5.43;;;23.50;99.90;;;;;;5005062;28;20125;-79
2023/09/28 10:35:20;;;;;;;22.77;4.45;;;23.70;99.90;;;;;;4977444;28;20405;-82
2023/09/28 10:38:16;;;;;;;16.63;4.05;;;23.50;99.90;;;;;;5004794;28;20097;-81
2023/09/28 10:40:44;;;;;;;15.18;3.70;;;23.50;99.90;;;;;;4990116;28;20045;-81
2023/09/28 10:43:10;;;;;;;19.00;4.55;;;23.60;99.90;;;;;;4986143;28;20045;-81
2023/09/28 10:45:37;;;;;;;15.10;3.55;;;23.50;99.90;;;;;;4984884;28;20065;-81
2023/09/28 10:48:07;;;;;;;22.13;4.45;;;23.70;99.90;;;;;;5001894;28;20046;-82
2023/09/28 10:50:40;;;;;;;16.60;3.25;;;23.60;99.90;;;;;;5004783;28;20635;-81
2023/09/28 10:53:05;;;;;;;31.10;5.88;;;23.40;99.90;;;;;;5003070;28;20050;-81
2023/09/28 10:55:31;;;;;;;17.40;3.97;;;23.40;99.90;;;;;;4986557;28;20048;-82
2023/09/28 10:58:04;;;;;;;22.33;4.13;;;23.30;99.90;;;;;;5001452;28;20038;-81
2023/09/28 11:00:32;;;;;;;20.25;4.18;;;23.40;99.90;;;;;;4998268;28;20042;-82
2023/09/28 11:02:58;;;;;;;20.48;4.43;;;23.40;99.90;;;;;;5000782;28;20092;-82
2023/09/28 11:05:25;;;;;;;25.52;4.50;;;23.50;99.90;;;;;;4985863;28;20067;-81
2023/09/28 11:07:51;;;;;;;23.70;4.30;;;23.50;99.90;;;;;;4986668;28;20120;-81
2023/09/28 11:10:16;;;;;;;25.63;4.25;;;23.50;99.90;;;;;;4977051;28;20042;-81
2023/09/28 11:12:44;;;;;;;18.38;3.53;;;23.50;99.90;;;;;;5008642;28;20048;-82
2023/09/28 11:15:14;;;;;;;16.67;4.85;;;23.50;99.90;;;;;;5002252;28;20073;-80
2023/09/28 11:17:42;;;;;;;22.40;5.32;;;23.50;99.90;;;;;;4999728;28;20045;-80
2023/09/28 11:20:11;;;;;;;17.20;4.05;;;23.50;99.90;;;;;;4983861;28;20133;-80
2023/09/28 11:22:36;;;;;;;19.38;3.97;;;23.70;99.90;;;;;;4997764;28;20045;-81
2023/09/28 11:25:02;;;;;;;20.42;5.10;;;23.70;99.90;;;;;;5003316;28;20091;-81
2023/09/28 11:27:28;;;;;;;18.13;3.92;;;23.90;99.90;;;;;;5002559;28;20044;-81
2023/09/28 11:29:58;;;;;;;22.10;4.25;;;24.00;99.90;;;;;;4982148;28;20041;-80
2023/09/28 11:32:23;;;;;;;14.25;3.58;;;24.00;99.90;;;;;;4984400;28;20041;-80
2023/09/28 11:34:51;;;;;;;21.02;4.72;;;23.80;99.90;;;;;;5003369;28;20424;-80
2023/09/28 11:37:17;;;;;;;19.17;4.57;;;23.70;99.90;;;;;;4991791;28;20094;-80
2023/09/28 11:39:43;;;;;;;20.30;4.55;;;23.70;99.90;;;;;;5008316;28;20033;-80
2023/09/28 11:42:09;;;;;;;30.65;4.78;;;23.90;99.90;;;;;;5007967;28;20045;-80
2023/09/28 11:44:36;;;;;;;20.80;4.68;;;23.80;99.90;;;;;;4986600;28;20037;-80
2023/09/28 11:47:04;;;;;;;23.40;5.03;;;23.90;99.90;;;;;;4970810;28;20046;-80
2023/09/28 11:49:30;;;;;;;22.60;4.47;;;23.70;99.90;;;;;;5003514;28;20042;-80
2023/09/28 11:51:55;;;;;;;22.75;5.45;;;24.00;99.90;;;;;;5004087;28;20421;-80
2023/09/28 11:54:22;;;;;;;20.05;4.43;;;23.80;99.90;;;;;;5003987;28;20114;-80
2023/09/28 11:56:48;;;;;;;23.40;4.68;;;23.90;99.90;;;;;;5003781;28;20069;-80
2023/09/28 11:59:15;;;;;;;19.70;4.47;;;24.10;99.90;;;;;;5002736;28;20363;-80
2023/09/28 12:01:45;;;;;;;22.48;4.35;;;23.80;99.90;;;;;;5002744;28;20477;-80
2023/09/28 12:04:11;;;;;;;20.42;4.50;;;23.90;99.90;;;;;;4986708;28;20072;-80
2023/09/28 12:06:37;;;;;;;19.95;4.93;;;24.00;99.90;;;;;;5002901;28;20049;-80
2023/09/28 12:09:06;;;;;;;21.65;4.07;;;23.90;99.90;;;;;;5002641;28;20038;-80
2023/09/28 12:11:33;;;;;;;23.65;4.80;;;23.80;99.90;;;;;;5002864;28;20050;-80
2023/09/28 12:13:59;;;;;;;25.38;5.30;;;24.00;99.90;;;;;;4987993;28;20041;-80
2023/09/28 12:16:26;;;;;;;20.73;4.13;;;23.80;99.90;;;;;;4999472;28;20042;-80
2023/09/28 12:18:51;;;;;;;14.27;3.92;;;23.90;99.90;;;;;;4990843;28;20568;-79
2023/09/28 12:21:17;;;;;;;29.02;5.70;;;24.00;99.90;;;;;;4985058;28;20038;-80
2023/09/28 12:23:43;;;;;;;24.38;4.68;;;23.90;99.90;;;;;;4982749;28;20089;-80
2023/09/28 12:26:10;;;;;;;24.55;5.47;;;23.80;99.90;;;;;;4982536;28;20039;-80
2023/09/28 12:28:37;;;;;;;21.38;4.82;;;23.80;99.90;;;;;;4982927;28;20057;-80
2023/09/28 12:31:04;;;;;;;25.08;4.90;;;23.80;99.90;;;;;;4998068;28;20046;-80
2023/09/28 12:33:30;;;;;;;15.82;4.05;;;23.60;99.90;;;;;;4999088;28;20049;-80
2023/09/28 12:35:56;;;;;;;17.83;4.35;;;24.00;99.90;;;;;;4998836;28;20044;-80
2023/09/28 12:38:22;;;;;;;18.38;4.53;;;23.70;99.90;;;;;;4998738;28;20097;-80
2023/09/28 12:40:48;;;;;;;19.35;3.53;;;24.30;99.90;;;;;;4982410;28;20038;-80